Сообщение об ошибке

  • Warning: ini_set(): Headers already sent. You cannot change the session module's ini settings at this time in drupal_environment_initialize() (line 699 of /home/a/auditpro/2.auditpro.beget.tech/public_html/st/includes/bootstrap.inc).
  • Warning: ini_set(): Headers already sent. You cannot change the session module's ini settings at this time in drupal_environment_initialize() (line 700 of /home/a/auditpro/2.auditpro.beget.tech/public_html/st/includes/bootstrap.inc).
  • Warning: ini_set(): Headers already sent. You cannot change the session module's ini settings at this time in drupal_environment_initialize() (line 701 of /home/a/auditpro/2.auditpro.beget.tech/public_html/st/includes/bootstrap.inc).
  • Warning: ini_set(): Headers already sent. You cannot change the session module's ini settings at this time in drupal_environment_initialize() (line 704 of /home/a/auditpro/2.auditpro.beget.tech/public_html/st/includes/bootstrap.inc).
  • Warning: ini_set(): Headers already sent. You cannot change the session module's ini settings at this time in drupal_environment_initialize() (line 706 of /home/a/auditpro/2.auditpro.beget.tech/public_html/st/includes/bootstrap.inc).
  • Warning: ini_set(): Headers already sent. You cannot change the session module's ini settings at this time in include_once() (line 290 of /home/a/auditpro/2.auditpro.beget.tech/public_html/st/sites/default/settings.php).
  • Warning: ini_set(): Headers already sent. You cannot change the session module's ini settings at this time in include_once() (line 291 of /home/a/auditpro/2.auditpro.beget.tech/public_html/st/sites/default/settings.php).
  • Warning: ini_set(): Headers already sent. You cannot change the session module's ini settings at this time in include_once() (line 299 of /home/a/auditpro/2.auditpro.beget.tech/public_html/st/sites/default/settings.php).
  • Warning: ini_set(): Headers already sent. You cannot change the session module's ini settings at this time in include_once() (line 306 of /home/a/auditpro/2.auditpro.beget.tech/public_html/st/sites/default/settings.php).
  • Warning: ini_set(): Headers already sent. You cannot change the session module's ini settings at this time in drupal_settings_initialize() (line 826 of /home/a/auditpro/2.auditpro.beget.tech/public_html/st/includes/bootstrap.inc).
  • Warning: ini_set(): Headers already sent. You cannot change the session module's ini settings at this time in drupal_settings_initialize() (line 835 of /home/a/auditpro/2.auditpro.beget.tech/public_html/st/includes/bootstrap.inc).
  • Warning: session_name(): Cannot change session name when headers already sent in drupal_settings_initialize() (line 838 of /home/a/auditpro/2.auditpro.beget.tech/public_html/st/includes/bootstrap.inc).

Бухта Провидения

СКИДКИ НА СМАРТФОНЫ!

Карта отелей и гостиниц, располагающихся рядом с аэропортом Бухта Провидения :

Бухта Провидения Чукотский автономный округ 64° 22' 44.4" N, 173° 14' 33.4212" W
Код аэродрома ИКАО
UHMD
Код аэродрома RU
УХМД
Координаты
N64.37900° W173.24262°
Превышение над уровнем моря
22
Основная полоса
01/19
Курс магнитный
014,8/194,8
Длина основной ВПП
2000
Ширина основной ВПП
52
Покрытие основной ВПП
Нетвёрдое (гравий)
Освещение ВПП
Нет
Тип: 
Аэродром
Класс аэродрома: 
Международный
Принадлежность: 
ГА
Статус: 
Действующий
E-mail аэродрома: 
provaier@mail.ru
Страна: 
Россия
Регион: 
Чукотский автономный округ
Дополнительная информация: 
Международный аэропорт федерального значения, расположен рядом с п. Урелики на южном противоположном берегу от п. Провидения. Обеспечивает регулярное авиасообщение с Анадырем, а также чартерное сообщение с Номом (Аляска). Военный индекс: ЬХМД/XHMD. Горный. Оператор: Филиал ФКП «Аэропорты Чукотки». Покрытие ГВПП: гравий + песок. Нкр.(500)м. ДПРС: 960-BC/WS. Принимает ВС массой 61 т и менее.
Погода: 

Авиационная погода в Бухте Провидения

Погода METAR: 
UHMD 302000Z 15005MPS 1000 BR OVC008 M01/M02 Q1006 RMK QBB250 MT OBSC QFE753/1005
Время наблюдения
2023-01-30T20:00:00Z
Температура C
-1.0
Точка росы
-2.0
Направление ветра
150
Скорость ветра (узлы)
10
Метео видимость
0.62
Облачность
OVC
Нижняя граница облачности (футы)
800
Явления погоды
BR
Условия полета
LIFR
Аэропорт подробнее: 
OVC – сплошная облачность;
BR – дымка (видимость от 1 до 9 км);

Скидки на навигаторы!

Найти трансфер

С помощью этой формы Вы можете найти трансфер из аэропорта Бухта Провидения в город, аэропорт или вокзал:

Погода в аэропортах:

Авиационная погода в Перми

Регион: 
Погода METAR: 
USPP 301930Z 20004MPS 9000 -SN BKN017 M07/M10 Q1010 R21/490340 NOSIG RMK QFE747
Время наблюдения
2023-01-30T19:30:00Z
Температура C
-7.0
Точка росы
-10.0
Направление ветра
200
Скорость ветра (узлы)
8
Метео видимость
5.59
Облачность
BKN
Нижняя граница облачности (футы)
1700
Явления погоды
-SN
Условия полета
MVFR
Аэропорт подробнее: 
BKN – значительная (рассеянная, разорванная) облачность;
-SN – слабый снег;

Авиационная погода в Мирном

Регион: 
Погода METAR: 
UERR 302000Z VRB01MPS 9999 -SN NSC M34/M38 Q1013 R07/490332 NOSIG RMK QFE729/0973
Время наблюдения
2023-01-30T20:00:00Z
Температура C
-34.0
Точка росы
-38.0
Направление ветра
0
Скорость ветра (узлы)
2
Метео видимость
6.21
Облачность
CLR
Нижняя граница облачности (футы)
Явления погоды
-SN
Условия полета
VFR
Аэропорт подробнее: 
CLR — нет облаков ниже 3000 м
-SN – слабый снег;

Авиационная погода в Якутске

Регион: 
Погода METAR: 
UEEE 301930Z 00000MPS 0200 0150SW R23L/0650N FG VV002 M47/M52 Q1014 R23L/490150 NOSIG RMK QBB060 QFE752
Время наблюдения
2023-01-30T19:30:00Z
Температура C
-47.0
Точка росы
-52.0
Направление ветра
0
Скорость ветра (узлы)
0
Метео видимость
0.12
Облачность
OVX
Нижняя граница облачности (футы)
0
Явления погоды
FG
Условия полета
LIFR
Аэропорт подробнее: 
FG – туман (небо не видно, температура воздуха выше нуля или ноль);

Авиационная погода в Москве - Остафьево

Погода METAR: 
UUMO 301930Z 21006MPS 6000 -SN OVC019 M01/M04 Q0996 R25/520148 NOSIG RMK QFE732/0976
Время наблюдения
2023-01-30T19:30:00Z
Температура C
-1.0
Точка росы
-4.0
Направление ветра
210
Скорость ветра (узлы)
12
Метео видимость
3.73
Облачность
OVC
Нижняя граница облачности (футы)
1900
Явления погоды
-SN
Условия полета
MVFR
Аэропорт подробнее: 
OVC – сплошная облачность;
-SN – слабый снег;